createdAt,value
2023-01-12T00:01:53.023Z,1.25
2023-01-12T00:04:20.349Z,1.70
2023-01-12T00:06:48.707Z,2.03
2023-01-12T00:09:15.681Z,1.65
2023-01-12T00:11:42.758Z,1.65
2023-01-12T00:14:09.826Z,1.50
2023-01-12T00:16:43.467Z,1.88
2023-01-12T00:19:19.121Z,1.65
2023-01-12T00:21:51.874Z,1.90
2023-01-12T00:24:19.952Z,1.63
2023-01-12T00:26:48.393Z,1.80
2023-01-12T00:29:16.484Z,1.50
2023-01-12T00:31:43.545Z,1.40
2023-01-12T00:34:10.423Z,0.65
2023-01-12T00:36:37.325Z,1.15
2023-01-12T00:39:04.323Z,1.40
2023-01-12T00:41:49.663Z,1.35
2023-01-12T00:44:35.569Z,1.27
2023-01-12T00:47:02.671Z,1.17
2023-01-12T00:49:29.578Z,1.30
2023-01-12T00:51:56.413Z,1.40
2023-01-12T00:54:23.257Z,1.15
2023-01-12T00:56:50.229Z,1.30
2023-01-12T00:59:17.182Z,0.93
2023-01-12T01:01:44.218Z,1.00
2023-01-12T01:04:11.207Z,0.90
2023-01-12T01:06:39.414Z,1.13
2023-01-12T01:09:07.446Z,1.02
2023-01-12T01:11:35.383Z,1.20
2023-01-12T01:14:03.280Z,1.65
2023-01-12T01:16:31.360Z,1.05
2023-01-12T01:18:59.442Z,1.10
2023-01-12T01:21:27.260Z,0.90
2023-01-12T01:23:54.369Z,1.00
2023-01-12T01:26:23.558Z,1.20
2023-01-12T01:28:51.242Z,1.23
2023-01-12T01:31:22.509Z,1.42
2023-01-12T01:33:50.954Z,1.02
2023-01-12T01:36:19.001Z,1.15
2023-01-12T01:38:47.303Z,1.05
2023-01-12T01:41:23.339Z,0.90
2023-01-12T01:44:02.141Z,1.55
2023-01-12T01:46:50.499Z,1.00
2023-01-12T01:49:49.771Z,1.27
2023-01-12T01:52:26.058Z,1.00
2023-01-12T01:55:11.653Z,1.00
2023-01-12T01:57:47.721Z,0.85
2023-01-12T02:00:15.050Z,0.80
2023-01-12T02:02:45.634Z,0.80
2023-01-12T02:05:16.327Z,1.10
2023-01-12T02:07:43.328Z,0.90
2023-01-12T02:10:10.991Z,0.82
2023-01-12T02:12:56.885Z,0.90
2023-01-12T02:15:47.234Z,1.10
2023-01-12T02:18:52.581Z,0.60
2023-01-12T02:21:25.238Z,0.90
2023-01-12T02:24:06.844Z,0.70
2023-01-12T02:27:00.665Z,1.08
2023-01-12T02:29:27.517Z,1.48
2023-01-12T02:32:15.560Z,1.38
2023-01-12T02:35:14.610Z,0.95
2023-01-12T02:37:50.370Z,0.68
2023-01-12T02:40:29.932Z,0.50
2023-01-12T02:43:09.705Z,1.33
2023-01-12T02:45:54.880Z,0.68
2023-01-12T02:48:51.613Z,0.98
2023-01-12T02:51:45.897Z,0.87
2023-01-12T02:54:16.156Z,0.60
2023-01-12T02:57:09.345Z,0.50
2023-01-12T02:59:42.066Z,0.40
2023-01-12T03:02:11.392Z,0.40
2023-01-12T03:04:39.756Z,0.30
2023-01-12T03:07:26.807Z,0.50
2023-01-12T03:12:31.666Z,0.40
2023-01-12T03:15:02.569Z,0.73
2023-01-12T03:17:38.225Z,0.57
2023-01-12T03:20:14.291Z,0.40
2023-01-12T03:22:42.328Z,0.40
2023-01-12T03:25:14.374Z,0.45
2023-01-12T03:27:46.374Z,0.68
2023-01-12T03:30:24.273Z,0.40
2023-01-12T03:32:51.847Z,0.40
2023-01-12T03:35:24.382Z,0.57
2023-01-12T03:37:58.524Z,0.73
2023-01-12T03:40:39.508Z,0.43
2023-01-12T03:43:14.922Z,0.50
2023-01-12T03:45:50.062Z,0.40
2023-01-12T03:48:34.118Z,0.40
2023-01-12T03:51:10.521Z,0.60
2023-01-12T03:53:40.140Z,0.73
2023-01-12T03:56:11.407Z,0.85
2023-01-12T03:58:38.869Z,0.47
2023-01-12T04:01:06.284Z,0.50
2023-01-12T04:03:33.496Z,0.68
2023-01-12T04:06:00.634Z,0.70
2023-01-12T04:08:27.715Z,0.50
2023-01-12T04:10:54.705Z,0.50
2023-01-12T04:13:21.572Z,0.63
2023-01-12T04:15:48.887Z,0.52
2023-01-12T04:18:16.090Z,0.52
2023-01-12T04:20:43.001Z,0.63
2023-01-12T04:23:09.925Z,0.40
2023-01-12T04:25:37.066Z,0.68
2023-01-12T04:28:07.214Z,0.50
2023-01-12T04:30:35.011Z,0.50
2023-01-12T04:33:08.183Z,0.90
2023-01-12T04:35:35.245Z,1.42
2023-01-12T04:38:06.260Z,1.67
2023-01-12T04:40:33.171Z,2.47
2023-01-12T04:43:07.992Z,1.67
2023-01-12T04:45:41.703Z,1.70
2023-01-12T04:48:12.166Z,2.05
2023-01-12T04:50:40.344Z,1.13
2023-01-12T04:53:09.669Z,1.75
2023-01-12T04:55:37.998Z,1.88
2023-01-12T04:58:05.020Z,0.70
2023-01-12T05:00:31.999Z,1.10
2023-01-12T05:03:02.367Z,1.10
2023-01-12T05:05:32.225Z,1.00
2023-01-12T05:08:21.344Z,1.27
2023-01-12T05:10:52.856Z,1.25
2023-01-12T05:13:20.535Z,1.30
2023-01-12T05:15:47.596Z,1.23
2023-01-12T05:18:14.778Z,1.20
2023-01-12T05:20:41.738Z,1.27
2023-01-12T05:23:08.618Z,1.50
2023-01-12T05:25:35.608Z,1.40
2023-01-12T05:28:02.579Z,1.13
2023-01-12T05:30:31.815Z,1.17
2023-01-12T05:32:59.132Z,1.17
2023-01-12T05:35:26.138Z,1.30
2023-01-12T05:37:56.173Z,1.55
2023-01-12T05:40:23.178Z,1.25
2023-01-12T05:43:11.158Z,1.25
2023-01-12T05:45:38.341Z,0.93
2023-01-12T05:48:05.509Z,0.70
2023-01-12T05:50:32.563Z,1.20
2023-01-12T05:53:09.520Z,0.43
2023-01-12T05:55:40.135Z,0.50
2023-01-12T05:58:07.071Z,0.50
2023-01-12T06:00:33.983Z,0.60
2023-01-12T06:03:02.971Z,0.63
2023-01-12T06:05:30.113Z,0.45
2023-01-12T06:07:57.916Z,0.88
2023-01-12T06:10:24.865Z,1.15
2023-01-12T06:13:10.452Z,0.43
2023-01-12T06:15:37.362Z,0.90
2023-01-12T06:18:04.449Z,0.93
2023-01-12T06:20:31.638Z,0.50
2023-01-12T06:23:02.506Z,0.60
2023-01-12T06:25:30.209Z,0.70
2023-01-12T06:27:57.171Z,0.73
2023-01-12T06:30:25.020Z,0.80
2023-01-12T06:32:51.980Z,0.90
2023-01-12T06:35:19.956Z,1.00
2023-01-12T06:37:47.313Z,1.10
2023-01-12T06:40:15.513Z,1.00
2023-01-12T06:42:42.700Z,0.98
2023-01-12T06:45:10.724Z,0.90
2023-01-12T06:47:49.467Z,1.05
2023-01-12T06:50:16.795Z,1.05
2023-01-12T06:52:43.844Z,1.20
2023-01-12T06:55:10.834Z,1.00
2023-01-12T06:57:37.847Z,1.25
2023-01-12T07:00:06.364Z,1.00
2023-01-12T07:02:33.411Z,0.70
2023-01-12T07:05:00.364Z,0.68
2023-01-12T07:07:27.589Z,0.70
2023-01-12T07:09:54.437Z,0.68
2023-01-12T07:12:21.385Z,0.80
2023-01-12T07:14:48.308Z,0.70
2023-01-12T07:17:15.458Z,0.90
2023-01-12T07:19:43.433Z,0.90
2023-01-12T07:22:10.364Z,0.88
2023-01-12T07:24:37.275Z,1.20
2023-01-12T07:27:04.181Z,0.93
2023-01-12T07:29:31.079Z,1.08
2023-01-12T07:31:57.964Z,0.63
2023-01-12T07:34:24.851Z,0.68
2023-01-12T07:36:52.020Z,1.10
2023-01-12T07:39:19.357Z,0.82
2023-01-12T07:42:04.895Z,0.82
2023-01-12T07:44:31.850Z,0.80
2023-01-12T07:46:59.801Z,0.50
2023-01-12T07:49:27.521Z,0.55
2023-01-12T07:51:55.332Z,0.90
2023-01-12T07:54:23.705Z,0.90
2023-01-12T07:56:50.685Z,0.70
2023-01-12T07:59:17.911Z,0.57
2023-01-12T08:01:44.897Z,0.60
2023-01-12T08:04:11.996Z,0.60
2023-01-12T08:06:38.897Z,0.70
2023-01-12T08:09:05.831Z,0.75
2023-01-12T08:11:32.829Z,1.00
2023-01-12T08:14:01.537Z,0.80
2023-01-12T08:16:49.782Z,0.75
2023-01-12T08:19:23.835Z,0.75
2023-01-12T08:21:58.741Z,0.93
2023-01-12T08:24:32.340Z,1.20
2023-01-12T08:27:02.152Z,1.00
2023-01-12T08:29:34.813Z,1.00
2023-01-12T08:32:05.094Z,0.93
2023-01-12T08:34:40.760Z,0.82
2023-01-12T08:37:11.953Z,0.85
2023-01-12T08:39:39.593Z,0.80
2023-01-12T08:42:06.905Z,0.88
2023-01-12T08:44:36.802Z,0.93
2023-01-12T08:47:05.728Z,0.60
2023-01-12T08:49:34.263Z,0.70
2023-01-12T08:52:01.278Z,0.70
2023-01-12T08:54:28.344Z,0.55
2023-01-12T08:56:55.311Z,0.93
2023-01-12T08:59:22.491Z,0.60
2023-01-12T09:01:49.577Z,0.40
2023-01-12T09:04:17.024Z,0.52
2023-01-12T09:06:45.483Z,1.00
2023-01-12T09:09:14.915Z,0.47
2023-01-12T09:11:43.508Z,1.05
2023-01-12T09:14:14.273Z,0.70
2023-01-12T09:16:41.951Z,0.45
2023-01-12T09:19:10.223Z,1.10
2023-01-12T09:21:39.438Z,1.20
2023-01-12T09:24:06.887Z,1.40
2023-01-12T09:26:44.325Z,1.35
2023-01-12T09:29:12.739Z,1.60
2023-01-12T09:31:41.982Z,1.77
2023-01-12T09:34:09.140Z,1.30
2023-01-12T09:36:38.222Z,1.40
2023-01-12T09:39:09.840Z,1.20
2023-01-12T09:42:08.349Z,1.30
2023-01-12T10:18:20.661Z,0.10
2023-01-12T10:20:47.557Z,0.00
2023-01-12T10:23:24.764Z,0.03
2023-01-12T10:26:23.263Z,0.17
2023-01-12T10:28:53.778Z,0.30
2023-01-12T10:31:24.309Z,0.30
2023-01-12T10:34:08.779Z,0.30
2023-01-12T10:36:49.329Z,0.30
2023-01-12T10:39:35.460Z,0.20
2023-01-12T10:42:47.145Z,0.50
2023-01-12T10:45:16.674Z,0.40
2023-01-12T10:47:46.061Z,0.30
2023-01-12T10:50:28.102Z,0.10
2023-01-12T10:53:17.537Z,0.30
2023-01-12T10:55:45.574Z,0.25
2023-01-12T10:58:26.292Z,0.40
2023-01-12T11:00:54.254Z,0.30
2023-01-12T11:03:37.445Z,0.28
2023-01-12T11:06:31.780Z,0.10
2023-01-12T11:08:59.469Z,0.08
2023-01-12T11:11:32.462Z,0.50
2023-01-12T11:14:02.602Z,0.30
2023-01-12T11:16:42.429Z,0.20
2023-01-12T11:19:31.743Z,0.15
2023-01-12T11:22:11.459Z,0.15
2023-01-12T11:24:47.620Z,0.30
2023-01-12T11:27:21.405Z,0.30
2023-01-12T11:30:14.791Z,0.22
2023-01-12T11:33:09.055Z,0.17
2023-01-12T11:35:47.078Z,0.20
2023-01-12T11:38:16.857Z,0.10
2023-01-12T11:40:45.227Z,0.20
2023-01-12T11:43:39.039Z,0.20
2023-01-12T11:46:16.638Z,0.30
2023-01-12T11:48:59.635Z,0.20
2023-01-12T11:51:26.712Z,0.20
2023-01-12T11:53:53.974Z,0.20
2023-01-12T11:56:29.405Z,0.10
2023-01-12T11:59:15.087Z,0.20
2023-01-12T12:02:27.084Z,0.05
2023-01-12T12:05:06.386Z,0.00
2023-01-12T12:07:45.315Z,0.10
2023-01-12T12:10:32.695Z,0.00
2023-01-12T12:13:16.068Z,0.10
2023-01-12T12:15:56.965Z,0.20
2023-01-12T12:18:53.654Z,0.00
2023-01-12T12:21:49.855Z,0.10
2023-01-12T12:24:54.660Z,0.05
2023-01-12T12:27:58.230Z,0.10
2023-01-12T12:30:40.123Z,0.00
2023-01-12T12:33:50.719Z,0.00
2023-01-12T12:36:26.501Z,0.00
2023-01-12T12:39:15.362Z,0.00
2023-01-12T12:42:07.032Z,0.00
2023-01-12T12:45:06.596Z,0.03
2023-01-12T12:48:10.282Z,0.00
2023-01-12T12:50:44.456Z,0.05
2023-01-12T12:53:25.133Z,0.00
2023-01-12T12:55:53.931Z,0.10
2023-01-12T12:58:20.753Z,0.00
2023-01-12T13:00:49.509Z,0.00
2023-01-12T13:03:41.044Z,0.00
2023-01-12T13:06:16.827Z,0.05
2023-01-12T13:08:45.485Z,0.10
2023-01-12T13:11:12.542Z,0.00
2023-01-12T13:13:59.183Z,0.00
2023-01-12T13:16:26.149Z,0.00
2023-01-12T13:18:53.048Z,0.00
2023-01-12T13:21:56.405Z,0.00
2023-01-12T13:24:39.743Z,0.00
2023-01-12T13:27:47.976Z,0.00
2023-01-12T13:30:22.975Z,0.00
2023-01-12T13:32:57.754Z,0.00
2023-01-12T13:35:33.912Z,0.00
2023-01-12T13:38:22.330Z,0.00
2023-01-12T13:40:55.638Z,0.00
2023-01-12T13:43:34.456Z,0.00
2023-01-12T13:46:14.714Z,0.00
2023-01-12T13:48:49.854Z,0.00
2023-01-12T13:51:33.097Z,0.00
2023-01-12T13:54:07.327Z,0.00
2023-01-12T13:56:34.533Z,0.40
2023-01-12T13:59:03.923Z,0.00
2023-01-12T14:01:40.444Z,0.10
2023-01-12T14:07:12.073Z,0.10
2023-01-12T14:10:00.699Z,0.00
2023-01-12T14:12:42.936Z,0.00
2023-01-12T14:15:31.289Z,0.10
2023-01-12T14:18:11.730Z,0.10
2023-01-12T14:20:47.883Z,0.10
2023-01-12T14:23:35.020Z,0.00
2023-01-12T14:26:10.766Z,0.03
2023-01-12T14:28:43.799Z,0.10
2023-01-12T14:31:16.902Z,0.10
2023-01-12T14:33:50.646Z,0.10
2023-01-12T14:36:23.227Z,0.10
2023-01-12T14:38:52.039Z,0.00
2023-01-12T14:41:41.406Z,0.10
2023-01-12T14:44:39.370Z,0.10
2023-01-12T14:47:06.977Z,0.00
2023-01-12T14:49:38.325Z,0.00
2023-01-12T14:52:17.082Z,0.13
2023-01-12T14:54:44.470Z,0.03
2023-01-12T14:57:37.928Z,0.00
2023-01-12T15:00:06.080Z,0.10
2023-01-12T15:02:39.945Z,0.10
2023-01-12T15:05:21.739Z,0.00
2023-01-12T15:08:03.473Z,0.10
2023-01-12T15:10:41.028Z,0.10
2023-01-12T15:13:26.376Z,0.00
2023-01-12T15:16:14.052Z,0.00
2023-01-12T15:19:00.329Z,0.00
2023-01-12T15:21:47.106Z,0.10
2023-01-12T15:24:43.112Z,0.03
2023-01-12T15:27:12.529Z,0.05
2023-01-12T15:29:39.575Z,0.20
2023-01-12T15:32:24.729Z,0.10
2023-01-12T15:34:54.819Z,0.30
2023-01-12T15:37:21.857Z,0.20
2023-01-12T15:39:48.873Z,0.10
2023-01-12T15:42:20.097Z,0.20
2023-01-12T15:44:51.332Z,0.30
2023-01-12T15:47:19.603Z,0.30
2023-01-12T15:49:48.991Z,0.20
2023-01-12T15:52:20.579Z,0.10
2023-01-12T15:54:48.155Z,0.10
2023-01-12T15:57:15.574Z,0.15
2023-01-12T15:59:43.331Z,0.32
2023-01-12T16:02:29.377Z,0.25
2023-01-12T16:04:56.683Z,0.10
2023-01-12T16:07:23.644Z,0.15
2023-01-12T16:09:50.846Z,0.20
2023-01-12T16:12:18.581Z,0.30
2023-01-12T16:14:45.656Z,0.20
2023-01-12T16:17:12.618Z,0.10
2023-01-12T16:19:42.463Z,0.20
2023-01-12T16:22:14.407Z,0.20
2023-01-12T16:24:41.735Z,0.20
2023-01-12T16:27:08.767Z,0.10
2023-01-12T16:29:35.691Z,0.10
2023-01-12T16:32:02.767Z,0.15
2023-01-12T16:34:29.982Z,0.38
2023-01-12T16:36:58.022Z,0.20
2023-01-12T16:39:27.452Z,0.40
2023-01-12T16:42:00.402Z,0.20
2023-01-12T16:44:27.766Z,0.28
2023-01-12T16:46:54.716Z,0.57
2023-01-12T16:49:21.745Z,0.20
2023-01-12T16:51:48.767Z,0.20
2023-01-12T16:54:15.820Z,0.20
2023-01-12T16:56:43.004Z,0.10
2023-01-12T16:59:10.004Z,0.35
2023-01-12T17:01:37.125Z,0.20
2023-01-12T17:04:04.226Z,0.10
2023-01-12T17:06:31.312Z,0.20
2023-01-12T17:09:02.160Z,0.15
2023-01-12T17:11:30.812Z,0.30
2023-01-12T17:13:58.385Z,0.00
2023-01-12T17:16:29.591Z,0.10
2023-01-12T17:18:56.772Z,0.17
2023-01-12T17:21:24.663Z,0.00
2023-01-12T17:23:52.550Z,0.20
2023-01-12T17:26:19.841Z,0.15
2023-01-12T17:28:47.556Z,0.13
2023-01-12T17:31:17.561Z,0.10
2023-01-12T17:33:45.148Z,0.10
2023-01-12T17:36:13.153Z,0.28
2023-01-12T17:38:40.347Z,0.10
2023-01-12T17:41:32.427Z,0.10
2023-01-12T17:44:01.553Z,0.17
2023-01-12T17:46:29.059Z,0.20
2023-01-12T17:48:59.171Z,0.13
2023-01-12T17:51:26.685Z,0.10
2023-01-12T17:53:57.595Z,0.20
2023-01-12T17:56:26.269Z,0.30
2023-01-12T17:58:54.125Z,0.20
2023-01-12T18:01:22.747Z,0.10
2023-01-12T18:03:49.926Z,0.13
2023-01-12T18:06:25.841Z,0.10
2023-01-12T18:08:56.565Z,0.10
2023-01-12T18:11:24.286Z,0.13
2023-01-12T18:13:51.733Z,0.10
2023-01-12T18:16:19.287Z,0.20
2023-01-12T18:18:47.013Z,0.20
2023-01-12T18:21:21.181Z,0.28
2023-01-12T18:23:49.867Z,0.10
2023-01-12T18:26:20.500Z,0.22
2023-01-12T18:28:48.021Z,0.20
2023-01-12T18:31:17.746Z,0.10
2023-01-12T18:33:46.672Z,0.20
2023-01-12T18:36:20.112Z,0.10
2023-01-12T18:38:49.460Z,0.20
2023-01-12T18:41:36.284Z,0.20
2023-01-12T18:44:06.953Z,0.00
2023-01-12T18:46:54.219Z,0.30
2023-01-12T18:49:23.038Z,0.20
2023-01-12T18:52:09.132Z,0.00
2023-01-12T18:54:56.691Z,0.10
2023-01-12T18:57:27.043Z,0.10
2023-01-12T18:59:57.900Z,0.10
2023-01-12T19:02:25.247Z,0.10
2023-01-12T19:04:52.332Z,0.20
2023-01-12T19:07:48.020Z,0.20
2023-01-12T19:10:15.496Z,0.20
2023-01-12T19:12:45.933Z,0.10
2023-01-12T19:15:32.761Z,0.10
2023-01-12T19:18:00.801Z,0.10
2023-01-12T19:20:31.813Z,0.15
2023-01-12T19:23:17.404Z,0.25
2023-01-12T19:26:02.931Z,0.20
2023-01-12T19:28:32.949Z,0.20
2023-01-12T19:31:10.081Z,0.10
2023-01-12T19:33:38.109Z,0.10
2023-01-12T19:36:07.812Z,0.00
2023-01-12T19:38:38.740Z,0.10
2023-01-12T19:41:33.588Z,0.22
2023-01-12T19:44:05.871Z,0.10
2023-01-12T19:46:33.438Z,0.10
2023-01-12T19:49:00.581Z,0.10
2023-01-12T19:51:27.623Z,0.05
2023-01-12T19:53:54.578Z,0.00
2023-01-12T19:56:22.076Z,0.10
2023-01-12T19:58:49.021Z,0.20
2023-01-12T20:01:23.693Z,0.13
2023-01-12T20:03:51.202Z,0.10
2023-01-12T20:06:18.484Z,0.20
2023-01-12T20:08:45.438Z,0.10
2023-01-12T20:11:12.449Z,0.05
2023-01-12T20:13:39.488Z,0.08
2023-01-12T20:16:08.532Z,0.10
2023-01-12T20:18:36.152Z,0.10
2023-01-12T20:21:08.447Z,0.10
2023-01-12T20:23:35.743Z,0.05
2023-01-12T20:26:07.828Z,0.10
2023-01-12T20:28:35.925Z,0.08
2023-01-12T20:31:09.671Z,0.10
2023-01-12T20:33:37.051Z,0.10
2023-01-12T20:36:04.234Z,0.00
2023-01-12T20:38:31.150Z,0.00
2023-01-12T20:40:58.370Z,0.00
2023-01-12T20:43:25.776Z,0.10
2023-01-12T20:45:52.923Z,0.10
2023-01-12T20:48:19.956Z,0.10
2023-01-12T20:50:47.268Z,0.10
2023-01-12T20:53:16.456Z,0.10
2023-01-12T20:55:50.351Z,0.20
2023-01-12T20:58:18.204Z,0.10
2023-01-12T21:00:45.829Z,0.20
2023-01-12T21:03:13.088Z,0.08
2023-01-12T21:05:47.998Z,0.20
2023-01-12T21:08:17.374Z,0.20
2023-01-12T21:10:52.785Z,0.10
2023-01-12T21:13:21.193Z,0.10
2023-01-12T21:15:48.109Z,0.10
2023-01-12T21:18:15.091Z,0.10
2023-01-12T21:20:43.377Z,0.10
2023-01-12T21:23:10.727Z,0.10
2023-01-12T21:25:44.207Z,0.13
2023-01-12T21:28:11.817Z,0.22
2023-01-12T21:30:39.877Z,0.10
2023-01-12T21:33:07.049Z,0.10
2023-01-12T21:35:34.307Z,0.00
2023-01-12T21:38:01.436Z,0.10
2023-01-12T21:40:28.429Z,0.10
2023-01-12T21:43:10.664Z,0.28
2023-01-12T21:45:51.875Z,0.10
2023-01-12T21:48:21.252Z,0.00
2023-01-12T21:50:48.530Z,0.10
2023-01-12T21:53:21.246Z,0.08
2023-01-12T21:55:59.052Z,0.32
2023-01-12T21:58:27.561Z,0.00
2023-01-12T22:00:54.822Z,0.05
2023-01-12T22:03:25.853Z,0.10
2023-01-12T22:05:53.875Z,0.20
2023-01-12T22:08:21.427Z,0.10
2023-01-12T22:10:48.412Z,0.08
2023-01-12T22:13:16.974Z,0.03
2023-01-12T22:15:45.104Z,0.00
2023-01-12T22:18:11.994Z,0.10
2023-01-12T22:20:40.204Z,0.00
2023-01-12T22:23:07.650Z,0.10
2023-01-12T22:25:34.624Z,0.10
2023-01-12T22:28:01.674Z,0.10
2023-01-12T22:30:29.041Z,0.10
2023-01-12T22:32:56.361Z,0.10
2023-01-12T22:35:23.743Z,0.00
2023-01-12T22:37:50.688Z,0.00
2023-01-12T22:40:17.814Z,0.08
2023-01-12T22:43:03.164Z,0.10
2023-01-12T22:45:30.147Z,0.17
2023-01-12T22:47:57.165Z,0.00
2023-01-12T22:50:24.922Z,0.10
2023-01-12T22:52:53.132Z,0.00
2023-01-12T22:55:24.603Z,0.00
2023-01-12T22:57:52.115Z,0.10
2023-01-12T23:00:20.385Z,0.10
2023-01-12T23:03:03.114Z,0.10
2023-01-12T23:05:36.299Z,0.00
2023-01-12T23:08:06.916Z,0.00
2023-01-12T23:10:34.089Z,0.10
2023-01-12T23:13:17.805Z,0.00
2023-01-12T23:15:49.295Z,0.10
2023-01-12T23:18:22.166Z,0.00
2023-01-12T23:20:49.834Z,0.05
2023-01-12T23:23:18.276Z,0.10
2023-01-12T23:25:47.077Z,0.10
2023-01-12T23:28:15.271Z,0.10
2023-01-12T23:30:42.366Z,0.00
2023-01-12T23:33:10.293Z,0.50
2023-01-12T23:35:39.990Z,0.00
2023-01-12T23:38:08.527Z,0.10
2023-01-12T23:40:35.473Z,0.10
2023-01-12T23:43:02.455Z,0.10
2023-01-12T23:45:29.361Z,0.00
2023-01-12T23:47:56.324Z,0.10
2023-01-12T23:50:23.298Z,0.10
2023-01-12T23:52:50.734Z,0.10
2023-01-12T23:55:18.357Z,0.08
2023-01-12T23:57:48.301Z,0.00
